Time;durP1;ratioP1;P1;durP2;ratioP2;P2;SDS_P1;SDS_P2;PMS_P1;PMS_P2;Temp;Humidity;BMP_temperature;BMP_pressure;BME280_temperature;BME280_humidity;BME280_pressure;Samples;Min_cycle;Max_cycle;Signal;HPM_P1;HPM_P2
2023/09/19 00:02:06;;;;;;;9.20;2.88;;;;;;;;;;5102368;28;20047;-76
2023/09/19 00:04:33;;;;;;;9.65;2.78;;;;;;;;;;5113471;28;20126;-76
2023/09/19 00:06:59;;;;;;;9.75;3.05;;;;;;;;;;5110139;28;20041;-76
2023/09/19 00:09:28;;;;;;;9.95;3.13;;;;;;;;;;5098504;28;20044;-76
2023/09/19 00:11:54;;;;;;;8.20;3.10;;;;;;;;;;5113837;28;20039;-76
2023/09/19 00:14:24;;;;;;;9.02;2.88;;;;;;;;;;5095976;28;20040;-76
2023/09/19 00:16:50;;;;;;;10.20;2.60;;;;;;;;;;5106759;28;20059;-76
2023/09/19 00:19:17;;;;;;;9.38;2.80;;;;;;;;;;5110779;28;20036;-76
2023/09/19 00:21:43;;;;;;;10.48;3.10;;;;;;;;;;5110695;28;20039;-76
2023/09/19 00:24:09;;;;;;;9.05;3.10;;;;;;;;;;5113291;28;20086;-76
2023/09/19 00:26:36;;;;;;;7.40;3.08;;;;;;;;;;5114325;28;20043;-76
2023/09/19 00:29:03;;;;;;;13.50;3.20;;;;;;;;;;5097209;28;20055;-76
2023/09/19 00:31:29;;;;;;;7.07;2.72;;;;;;;;;;5097162;28;20052;-76
2023/09/19 00:33:59;;;;;;;7.70;2.60;;;;;;;;;;5106305;28;20036;-76
2023/09/19 00:36:25;;;;;;;7.85;3.10;;;;;;;;;;5115236;28;20040;-76
2023/09/19 00:38:51;;;;;;;10.68;3.05;;;;;;;;;;5101418;28;20086;-76
2023/09/19 00:41:17;;;;;;;4.80;2.40;;;;;;;;;;5097893;28;20079;-76
2023/09/19 00:43:43;;;;;;;10.32;2.83;;;;;;;;;;5113783;28;20040;-76
2023/09/19 00:46:09;;;;;;;6.63;3.00;;;;;;;;;;5104377;28;20573;-76
2023/09/19 00:48:46;;;;;;;8.98;2.90;;;;;;;;;;5099087;28;20444;-76
2023/09/19 00:51:13;;;;;;;8.18;2.42;;;;;;;;;;5102190;27;20645;-76
2023/09/19 00:53:39;;;;;;;10.20;3.42;;;;;;;;;;5126751;27;20118;-76
2023/09/19 00:56:06;;;;;;;12.73;3.20;;;;;;;;;;5102862;28;20488;-76
2023/09/19 00:58:33;;;;;;;13.82;3.25;;;;;;;;;;5098992;28;20039;-76
2023/09/19 01:00:59;;;;;;;10.73;2.70;;;;;;;;;;5105588;28;20088;-76
2023/09/19 01:03:26;;;;;;;11.18;2.97;;;;;;;;;;5115522;28;20067;-76
2023/09/19 01:05:52;;;;;;;11.98;3.33;;;;;;;;;;5112016;28;20096;-76
2023/09/19 01:08:18;;;;;;;7.53;2.45;;;;;;;;;;5104521;28;20441;-76
2023/09/19 01:10:51;;;;;;;8.05;3.25;;;;;;;;;;5109884;28;20044;-76
2023/09/19 01:13:30;;;;;;;8.05;2.53;;;;;;;;;;5106805;28;20123;-76
2023/09/19 01:16:05;;;;;;;9.30;2.60;;;;;;;;;;5095335;28;20048;-76
2023/09/19 01:18:43;;;;;;;7.22;2.95;;;;;;;;;;5110852;28;20495;-76
2023/09/19 01:21:20;;;;;;;6.38;2.38;;;;;;;;;;5106899;28;20040;-76
2023/09/19 01:23:49;;;;;;;9.60;2.72;;;;;;;;;;5114736;28;20119;-76
2023/09/19 01:26:24;;;;;;;12.85;2.55;;;;;;;;;;5113377;28;20483;-77
2023/09/19 01:29:01;;;;;;;9.88;2.70;;;;;;;;;;5114321;28;20066;-76
2023/09/19 01:31:29;;;;;;;8.20;2.67;;;;;;;;;;5111421;28;20058;-76
2023/09/19 01:34:04;;;;;;;10.20;2.92;;;;;;;;;;5122170;27;20053;-76
2023/09/19 01:36:35;;;;;;;6.28;2.30;;;;;;;;;;5109811;28;20044;-76
2023/09/19 01:39:05;;;;;;;7.65;2.80;;;;;;;;;;5095495;28;20051;-76
2023/09/19 01:41:55;;;;;;;7.55;2.40;;;;;;;;;;5111729;28;20139;-76
2023/09/19 01:44:35;;;;;;;9.18;2.80;;;;;;;;;;5100556;28;20059;-76
2023/09/19 01:47:05;;;;;;;6.65;2.70;;;;;;;;;;5103398;28;20043;-76
2023/09/19 01:49:43;;;;;;;7.40;2.50;;;;;;;;;;5111500;28;20481;-76
2023/09/19 01:52:19;;;;;;;9.98;2.95;;;;;;;;;;5106863;28;20044;-76
2023/09/19 01:54:48;;;;;;;5.47;2.42;;;;;;;;;;5114430;28;20479;-76
2023/09/19 01:57:18;;;;;;;8.32;2.75;;;;;;;;;;5116228;28;20075;-76
2023/09/19 01:59:49;;;;;;;8.43;2.50;;;;;;;;;;5115673;28;20036;-76
2023/09/19 02:02:16;;;;;;;5.20;2.58;;;;;;;;;;5099019;28;20032;-76
2023/09/19 02:04:42;;;;;;;6.15;2.30;;;;;;;;;;5102282;28;20071;-76
2023/09/19 02:07:08;;;;;;;6.93;2.22;;;;;;;;;;5115598;28;20441;-76
2023/09/19 02:09:35;;;;;;;9.18;2.50;;;;;;;;;;5115355;28;20039;-76
2023/09/19 02:12:03;;;;;;;8.73;2.92;;;;;;;;;;5101296;28;20076;-76
2023/09/19 02:14:29;;;;;;;8.43;2.50;;;;;;;;;;5108175;28;20047;-76
2023/09/19 02:16:56;;;;;;;6.22;2.63;;;;;;;;;;5113533;28;20067;-76
2023/09/19 02:19:22;;;;;;;9.65;2.95;;;;;;;;;;5115714;28;20114;-76
2023/09/19 02:21:48;;;;;;;6.18;2.67;;;;;;;;;;5114603;28;20122;-76
2023/09/19 02:24:15;;;;;;;5.75;2.55;;;;;;;;;;5101737;28;20475;-76
2023/09/19 02:26:41;;;;;;;11.00;2.53;;;;;;;;;;5115111;28;20096;-76
2023/09/19 02:29:07;;;;;;;6.80;2.42;;;;;;;;;;5115282;28;20088;-76
2023/09/19 02:31:33;;;;;;;6.43;2.60;;;;;;;;;;5103747;27;20039;-76
2023/09/19 02:34:00;;;;;;;8.38;2.50;;;;;;;;;;5102724;28;20046;-76
2023/09/19 02:36:26;;;;;;;9.55;2.60;;;;;;;;;;5114617;28;20039;-76
2023/09/19 02:38:52;;;;;;;7.80;3.10;;;;;;;;;;5102873;28;20056;-76
2023/09/19 02:41:18;;;;;;;6.15;2.25;;;;;;;;;;5112414;28;20432;-76
2023/09/19 02:43:45;;;;;;;6.38;2.35;;;;;;;;;;5110425;28;20054;-76
2023/09/19 02:46:11;;;;;;;10.70;2.50;;;;;;;;;;5108252;28;20036;-76
2023/09/19 02:48:38;;;;;;;6.30;2.10;;;;;;;;;;5108396;28;20207;-76
2023/09/19 02:51:04;;;;;;;8.23;2.30;;;;;;;;;;5114252;28;20067;-76
2023/09/19 02:53:31;;;;;;;8.02;2.30;;;;;;;;;;5114814;28;20143;-76
2023/09/19 02:55:58;;;;;;;7.60;2.40;;;;;;;;;;5114331;28;20071;-76
2023/09/19 02:58:25;;;;;;;8.15;2.65;;;;;;;;;;5106475;28;20078;-76
2023/09/19 03:00:51;;;;;;;8.40;2.63;;;;;;;;;;5106291;28;20067;-76
2023/09/19 03:03:17;;;;;;;8.18;2.55;;;;;;;;;;5115024;27;20487;-76
2023/09/19 03:05:46;;;;;;;7.78;2.20;;;;;;;;;;5111330;28;20375;-76
2023/09/19 03:08:14;;;;;;;6.68;2.58;;;;;;;;;;5094038;28;20048;-76
2023/09/19 03:10:41;;;;;;;8.38;2.88;;;;;;;;;;5107653;28;20048;-76
2023/09/19 03:13:09;;;;;;;8.15;2.50;;;;;;;;;;5094326;28;20072;-76
2023/09/19 03:15:38;;;;;;;7.95;2.75;;;;;;;;;;5106313;28;20119;-76
2023/09/19 03:18:05;;;;;;;5.90;2.45;;;;;;;;;;5093566;28;20492;-76
2023/09/19 03:20:32;;;;;;;10.00;2.75;;;;;;;;;;5106573;28;20059;-76
2023/09/19 03:22:58;;;;;;;7.10;2.20;;;;;;;;;;5114518;28;20047;-76
2023/09/19 03:25:24;;;;;;;8.95;2.42;;;;;;;;;;5109392;28;20078;-76
2023/09/19 03:27:50;;;;;;;7.50;2.50;;;;;;;;;;5092301;28;20188;-76
2023/09/19 03:30:17;;;;;;;8.07;2.63;;;;;;;;;;5104845;28;20040;-76
2023/09/19 03:32:50;;;;;;;6.15;2.13;;;;;;;;;;5113727;28;20040;-76
2023/09/19 03:35:16;;;;;;;6.28;2.30;;;;;;;;;;5112903;28;20043;-76
2023/09/19 03:37:43;;;;;;;6.55;2.20;;;;;;;;;;5094018;28;20043;-76
2023/09/19 03:40:10;;;;;;;9.73;2.70;;;;;;;;;;5111767;28;20048;-76
2023/09/19 03:42:39;;;;;;;8.13;2.25;;;;;;;;;;5114283;28;20089;-76
2023/09/19 03:45:06;;;;;;;7.68;2.65;;;;;;;;;;5111556;28;20071;-76
2023/09/19 03:47:33;;;;;;;7.05;2.22;;;;;;;;;;5106116;28;20040;-76
2023/09/19 03:49:59;;;;;;;6.75;2.38;;;;;;;;;;5106618;28;20522;-76
2023/09/19 03:52:25;;;;;;;7.93;2.50;;;;;;;;;;5105736;28;20035;-76
2023/09/19 03:54:51;;;;;;;7.60;2.70;;;;;;;;;;5113478;28;20044;-76
2023/09/19 03:57:20;;;;;;;8.82;2.60;;;;;;;;;;5112193;28;20118;-76
2023/09/19 03:59:47;;;;;;;9.35;2.80;;;;;;;;;;5108014;28;20104;-76
2023/09/19 04:02:21;;;;;;;9.30;2.55;;;;;;;;;;5108269;28;20052;-76
2023/09/19 04:04:48;;;;;;;6.00;2.35;;;;;;;;;;5093456;28;20060;-76
2023/09/19 04:07:14;;;;;;;8.32;2.60;;;;;;;;;;5107032;28;20047;-76
2023/09/19 04:09:40;;;;;;;8.40;2.63;;;;;;;;;;5102099;28;20119;-76
2023/09/19 04:12:06;;;;;;;7.30;2.33;;;;;;;;;;5112446;28;20374;-76
2023/09/19 04:14:32;;;;;;;5.80;2.65;;;;;;;;;;5108171;28;20499;-76
2023/09/19 04:16:58;;;;;;;4.72;2.20;;;;;;;;;;5094465;28;20054;-76
2023/09/19 04:19:25;;;;;;;8.38;2.35;;;;;;;;;;5110561;28;20079;-76
2023/09/19 04:21:51;;;;;;;8.10;2.35;;;;;;;;;;5110418;28;20079;-76
2023/09/19 04:24:19;;;;;;;6.97;2.80;;;;;;;;;;5113335;28;20063;-76
2023/09/19 04:26:45;;;;;;;11.45;2.67;;;;;;;;;;5101841;28;20044;-76
2023/09/19 04:29:13;;;;;;;9.52;2.58;;;;;;;;;;5107171;28;20846;-76
2023/09/19 04:31:40;;;;;;;7.40;2.25;;;;;;;;;;5108483;28;20122;-76
2023/09/19 04:34:06;;;;;;;13.15;2.70;;;;;;;;;;5111402;28;20051;-76
2023/09/19 04:36:32;;;;;;;5.30;2.40;;;;;;;;;;5101861;28;21100;-76
2023/09/19 04:38:58;;;;;;;8.60;2.75;;;;;;;;;;5101686;28;21866;-76
2023/09/19 04:41:24;;;;;;;7.65;2.33;;;;;;;;;;5097028;28;20499;-76
2023/09/19 04:43:51;;;;;;;7.10;2.47;;;;;;;;;;5102516;28;20479;-76
2023/09/19 04:46:17;;;;;;;7.28;2.60;;;;;;;;;;5113089;28;20501;-76
2023/09/19 04:48:43;;;;;;;10.10;2.88;;;;;;;;;;5102400;28;20471;-76
2023/09/19 04:51:10;;;;;;;10.13;2.40;;;;;;;;;;5100512;28;20369;-76
2023/09/19 04:53:36;;;;;;;6.78;2.40;;;;;;;;;;5110134;28;20055;-76
2023/09/19 04:56:03;;;;;;;7.05;2.53;;;;;;;;;;5108882;28;20133;-76
2023/09/19 04:58:30;;;;;;;8.80;2.65;;;;;;;;;;5105039;28;20044;-76
2023/09/19 05:00:56;;;;;;;7.82;2.38;;;;;;;;;;5111001;28;20105;-76
2023/09/19 05:03:22;;;;;;;5.10;2.35;;;;;;;;;;5109411;28;20036;-76
2023/09/19 05:05:48;;;;;;;6.68;2.47;;;;;;;;;;5112270;28;20051;-76
2023/09/19 05:08:15;;;;;;;7.15;2.58;;;;;;;;;;5112601;28;20040;-76
2023/09/19 05:10:41;;;;;;;9.73;2.70;;;;;;;;;;5096880;28;20044;-76
2023/09/19 05:13:07;;;;;;;10.60;2.65;;;;;;;;;;5102874;28;20122;-76
2023/09/19 05:15:35;;;;;;;8.05;2.78;;;;;;;;;;5116495;28;20049;-76
2023/09/19 05:18:01;;;;;;;8.23;2.90;;;;;;;;;;5115085;28;20136;-75
2023/09/19 05:20:32;;;;;;;12.40;2.85;;;;;;;;;;5101177;28;20083;-76
2023/09/19 05:23:02;;;;;;;8.20;2.55;;;;;;;;;;5104297;28;20047;-75
2023/09/19 05:25:29;;;;;;;8.77;2.83;;;;;;;;;;5116434;28;20047;-76
2023/09/19 05:27:57;;;;;;;9.85;2.50;;;;;;;;;;5104410;28;20044;-76
2023/09/19 05:30:23;;;;;;;8.68;2.65;;;;;;;;;;5102053;28;20047;-76
2023/09/19 05:32:51;;;;;;;7.78;2.75;;;;;;;;;;5115752;28;20044;-76
2023/09/19 05:35:17;;;;;;;9.23;2.80;;;;;;;;;;5114767;28;20379;-76
2023/09/19 05:37:43;;;;;;;9.30;2.47;;;;;;;;;;5108338;28;20102;-76
2023/09/19 05:40:10;;;;;;;7.45;2.50;;;;;;;;;;5114120;28;20074;-76
2023/09/19 05:42:36;;;;;;;9.40;2.85;;;;;;;;;;5111988;28;20114;-76
2023/09/19 05:45:02;;;;;;;10.63;2.58;;;;;;;;;;5096172;28;20044;-76
2023/09/19 05:47:28;;;;;;;7.43;2.40;;;;;;;;;;5098278;28;20052;-77
2023/09/19 05:49:54;;;;;;;5.47;2.33;;;;;;;;;;5104264;28;20044;-76
2023/09/19 05:52:22;;;;;;;10.60;3.33;;;;;;;;;;5105922;28;20118;-76
2023/09/19 05:54:49;;;;;;;9.40;2.75;;;;;;;;;;5099964;28;20048;-76
2023/09/19 05:57:15;;;;;;;8.65;2.53;;;;;;;;;;5107397;28;20047;-76
2023/09/19 05:59:42;;;;;;;8.05;2.38;;;;;;;;;;5113680;28;20439;-76
2023/09/19 06:02:09;;;;;;;8.38;2.80;;;;;;;;;;5105884;28;20043;-76
2023/09/19 06:04:35;;;;;;;6.90;2.60;;;;;;;;;;5111575;28;20048;-75
2023/09/19 06:07:02;;;;;;;8.27;2.55;;;;;;;;;;5115923;28;20392;-75
2023/09/19 06:09:29;;;;;;;9.07;3.03;;;;;;;;;;5105646;28;20515;-76
2023/09/19 06:11:55;;;;;;;8.68;2.75;;;;;;;;;;5107721;28;20047;-75
2023/09/19 06:14:23;;;;;;;7.57;2.50;;;;;;;;;;5109455;28;20059;-76
2023/09/19 06:16:49;;;;;;;6.25;2.78;;;;;;;;;;5099385;28;20063;-75
2023/09/19 06:19:15;;;;;;;14.15;3.38;;;;;;;;;;5106545;28;20027;-75
2023/09/19 06:21:42;;;;;;;10.30;2.80;;;;;;;;;;5113973;28;20043;-75
2023/09/19 06:24:08;;;;;;;8.45;2.50;;;;;;;;;;5111277;28;20085;-75
2023/09/19 06:26:34;;;;;;;8.48;2.60;;;;;;;;;;5111818;28;20069;-75
2023/09/19 06:29:00;;;;;;;10.32;2.75;;;;;;;;;;5097803;28;20380;-76
2023/09/19 06:31:26;;;;;;;7.43;2.83;;;;;;;;;;5108257;28;20372;-75
2023/09/19 06:33:53;;;;;;;7.53;2.65;;;;;;;;;;5115620;28;20051;-77
2023/09/19 06:36:19;;;;;;;9.38;2.80;;;;;;;;;;5110841;27;20128;-78
2023/09/19 06:38:46;;;;;;;10.23;2.70;;;;;;;;;;5100966;28;20503;-77
2023/09/19 06:41:13;;;;;;;7.53;2.83;;;;;;;;;;5102061;28;20036;-79
2023/09/19 06:43:39;;;;;;;11.38;3.10;;;;;;;;;;5113681;28;20060;-77
2023/09/19 06:46:07;;;;;;;9.85;2.97;;;;;;;;;;5105976;28;20404;-77
2023/09/19 06:48:33;;;;;;;10.20;3.10;;;;;;;;;;5088485;28;20391;-78
2023/09/19 06:51:04;;;;;;;6.55;2.53;;;;;;;;;;5115693;28;20048;-77
2023/09/19 06:53:31;;;;;;;8.73;2.80;;;;;;;;;;5115123;28;20051;-77
2023/09/19 06:55:58;;;;;;;8.63;2.67;;;;;;;;;;5109564;28;20078;-79
2023/09/19 06:58:24;;;;;;;8.52;2.85;;;;;;;;;;5114826;28;20348;-77
2023/09/19 07:00:50;;;;;;;10.10;2.95;;;;;;;;;;5111930;28;20466;-77
2023/09/19 07:03:20;;;;;;;10.10;2.97;;;;;;;;;;5101599;28;20109;-77
2023/09/19 07:05:48;;;;;;;11.02;3.15;;;;;;;;;;5096706;28;20113;-77
2023/09/19 07:08:15;;;;;;;9.52;2.75;;;;;;;;;;5107404;28;20047;-77
2023/09/19 07:10:48;;;;;;;9.38;2.60;;;;;;;;;;5122237;27;20047;-77
2023/09/19 07:13:16;;;;;;;10.20;3.20;;;;;;;;;;5114532;28;20371;-77
2023/09/19 07:15:46;;;;;;;10.77;2.85;;;;;;;;;;5114269;28;20040;-77
2023/09/19 07:18:16;;;;;;;7.75;2.63;;;;;;;;;;5102538;28;20040;-77
2023/09/19 07:20:48;;;;;;;7.03;2.22;;;;;;;;;;5112366;28;20439;-77
2023/09/19 07:23:15;;;;;;;6.82;2.75;;;;;;;;;;5102067;28;20483;-77
2023/09/19 07:25:41;;;;;;;7.18;2.58;;;;;;;;;;5100086;28;20047;-77
2023/09/19 07:28:07;;;;;;;7.80;2.40;;;;;;;;;;5106921;28;20039;-77
2023/09/19 07:30:37;;;;;;;8.45;2.63;;;;;;;;;;5112085;28;20048;-77
2023/09/19 07:33:04;;;;;;;9.80;2.78;;;;;;;;;;5107332;28;20055;-77
2023/09/19 07:35:31;;;;;;;8.43;2.90;;;;;;;;;;5100202;28;20064;-77
2023/09/19 07:37:58;;;;;;;9.43;3.22;;;;;;;;;;5114166;28;20069;-77
2023/09/19 07:40:26;;;;;;;9.05;2.70;;;;;;;;;;5102182;27;20101;-76
2023/09/19 07:42:52;;;;;;;8.88;2.53;;;;;;;;;;5113762;28;20051;-76
2023/09/19 07:45:19;;;;;;;9.18;3.00;;;;;;;;;;5113750;28;20036;-76
2023/09/19 07:47:45;;;;;;;10.85;3.65;;;;;;;;;;5103983;28;20675;-76
2023/09/19 07:50:12;;;;;;;10.23;2.88;;;;;;;;;;5107112;28;20039;-77
2023/09/19 07:52:39;;;;;;;10.20;3.08;;;;;;;;;;5114041;28;20036;-77
2023/09/19 07:55:08;;;;;;;9.80;2.83;;;;;;;;;;5113374;28;20051;-77
2023/09/19 07:57:35;;;;;;;10.18;3.08;;;;;;;;;;5113924;28;20118;-76
2023/09/19 08:00:04;;;;;;;8.30;3.05;;;;;;;;;;5105522;28;20093;-76
2023/09/19 08:02:30;;;;;;;8.70;2.67;;;;;;;;;;5103989;28;20075;-77
2023/09/19 08:04:58;;;;;;;8.20;3.55;;;;;;;;;;5113270;28;20465;-77
2023/09/19 08:07:24;;;;;;;11.30;3.13;;;;;;;;;;5113899;28;20052;-77
2023/09/19 08:09:51;;;;;;;8.30;3.28;;;;;;;;;;5104380;28;20372;-77
2023/09/19 08:12:17;;;;;;;9.00;3.03;;;;;;;;;;5098380;28;20509;-77
2023/09/19 08:14:43;;;;;;;7.93;2.53;;;;;;;;;;5101744;28;20079;-77
2023/09/19 08:17:09;;;;;;;9.15;2.88;;;;;;;;;;5108854;28;20054;-77
2023/09/19 08:19:40;;;;;;;10.48;3.30;;;;;;;;;;5113383;28;20118;-77
2023/09/19 08:22:06;;;;;;;9.23;2.47;;;;;;;;;;5113756;28;20059;-76
2023/09/19 08:24:34;;;;;;;8.20;2.92;;;;;;;;;;5113827;28;20100;-76
2023/09/19 08:27:01;;;;;;;8.75;2.55;;;;;;;;;;5112961;28;20124;-76
2023/09/19 08:29:30;;;;;;;9.65;2.95;;;;;;;;;;5100083;28;20501;-80
2023/09/19 08:31:56;;;;;;;6.78;2.83;;;;;;;;;;5112036;28;20384;-77
2023/09/19 08:34:23;;;;;;;10.85;3.10;;;;;;;;;;5102183;28;20436;-77
2023/09/19 08:36:50;;;;;;;7.88;3.20;;;;;;;;;;5097266;28;20050;-77
2023/09/19 08:39:18;;;;;;;6.63;2.60;;;;;;;;;;5113118;28;20495;-77
2023/09/19 08:41:44;;;;;;;8.00;2.67;;;;;;;;;;5113665;28;20047;-77
2023/09/19 08:44:10;;;;;;;9.25;2.70;;;;;;;;;;5110744;28;20039;-77
2023/09/19 08:46:38;;;;;;;7.22;2.80;;;;;;;;;;5103676;28;20432;-77
2023/09/19 08:49:05;;;;;;;8.95;3.13;;;;;;;;;;5116330;28;20043;-77
2023/09/19 08:51:44;;;;;;;8.82;2.45;;;;;;;;;;5103810;27;20044;-77
2023/09/19 08:54:13;;;;;;;9.98;2.90;;;;;;;;;;5103132;28;20396;-76
2023/09/19 08:56:39;;;;;;;7.30;3.00;;;;;;;;;;5117257;28;20131;-76
2023/09/19 08:59:07;;;;;;;8.77;3.15;;;;;;;;;;5117121;28;20043;-76
2023/09/19 09:01:33;;;;;;;10.40;2.97;;;;;;;;;;5109478;28;20044;-76
2023/09/19 09:04:00;;;;;;;7.43;2.80;;;;;;;;;;5116619;28;20054;-76
2023/09/19 09:06:27;;;;;;;7.78;2.95;;;;;;;;;;5109547;28;20157;-76
2023/09/19 09:08:54;;;;;;;6.80;2.85;;;;;;;;;;5110799;28;20054;-76
2023/09/19 09:11:21;;;;;;;7.00;2.83;;;;;;;;;;5108589;28;20052;-76
2023/09/19 09:13:47;;;;;;;10.00;3.00;;;;;;;;;;5096578;28;20472;-76
2023/09/19 09:16:17;;;;;;;7.97;2.47;;;;;;;;;;5104555;28;20048;-76
2023/09/19 09:18:44;;;;;;;7.68;3.00;;;;;;;;;;5116212;28;20498;-76
2023/09/19 09:21:10;;;;;;;7.72;3.50;;;;;;;;;;5107815;28;20051;-76
2023/09/19 09:23:36;;;;;;;10.48;3.40;;;;;;;;;;5112563;28;20040;-76
2023/09/19 09:26:02;;;;;;;9.07;2.88;;;;;;;;;;5105012;28;20063;-76
2023/09/19 09:28:30;;;;;;;10.95;3.13;;;;;;;;;;5112425;28;20054;-76
2023/09/19 09:30:57;;;;;;;8.27;2.80;;;;;;;;;;5116227;28;20375;-76
2023/09/19 09:33:24;;;;;;;10.52;2.90;;;;;;;;;;5113365;28;20043;-76
2023/09/19 09:35:59;;;;;;;9.18;3.08;;;;;;;;;;5105043;28;20105;-76
2023/09/19 09:38:32;;;;;;;16.23;3.63;;;;;;;;;;5116568;28;20083;-76
2023/09/19 09:43:27;;;;;;;10.45;2.75;;;;;;;;;;5105633;28;20035;-82
2023/09/19 09:46:58;;;;;;;10.85;2.92;;;;;;;;;;5100428;28;20126;-79
2023/09/19 09:49:24;;;;;;;9.65;3.45;;;;;;;;;;5093844;28;20079;-76
2023/09/19 09:51:59;;;;;;;9.88;3.10;;;;;;;;;;5103811;28;20145;-76
2023/09/19 09:54:28;;;;;;;7.13;3.10;;;;;;;;;;5110270;27;20123;-76
2023/09/19 09:56:58;;;;;;;10.82;3.28;;;;;;;;;;5106701;28;20044;-76
2023/09/19 09:59:43;;;;;;;9.00;3.05;;;;;;;;;;5106413;28;20093;-84
2023/09/19 10:02:13;;;;;;;10.38;3.55;;;;;;;;;;5103101;28;20047;-77
2023/09/19 10:04:51;;;;;;;8.15;3.20;;;;;;;;;;5097194;28;20040;-76
2023/09/19 10:07:38;;;;;;;12.80;3.30;;;;;;;;;;5108685;28;20113;-76
2023/09/19 10:10:12;;;;;;;10.10;3.15;;;;;;;;;;5106473;28;20048;-76
2023/09/19 10:12:43;;;;;;;9.45;3.05;;;;;;;;;;5108125;28;20044;-76
2023/09/19 10:15:11;;;;;;;12.70;3.58;;;;;;;;;;5108060;28;20360;-76
2023/09/19 10:17:40;;;;;;;11.82;3.40;;;;;;;;;;5107862;28;20389;-76
2023/09/19 10:20:17;;;;;;;10.07;3.67;;;;;;;;;;5106636;27;20060;-76
2023/09/19 10:22:44;;;;;;;10.10;3.00;;;;;;;;;;5107310;27;20046;-76
2023/09/19 10:25:10;;;;;;;9.75;3.47;;;;;;;;;;5119628;27;20075;-76
2023/09/19 10:27:37;;;;;;;11.20;3.20;;;;;;;;;;5105246;28;20048;-76
2023/09/19 10:30:07;;;;;;;13.02;3.35;;;;;;;;;;5101910;28;20059;-76
2023/09/19 10:32:35;;;;;;;9.68;3.53;;;;;;;;;;5105285;28;20377;-76
2023/09/19 10:35:04;;;;;;;9.32;2.70;;;;;;;;;;5108856;28;20040;-76
2023/09/19 10:37:32;;;;;;;8.88;2.90;;;;;;;;;;5102514;28;20067;-76
2023/09/19 10:39:59;;;;;;;10.35;3.15;;;;;;;;;;5111932;27;20168;-76
2023/09/19 10:42:28;;;;;;;9.77;3.42;;;;;;;;;;5095510;28;20043;-79
2023/09/19 10:44:55;;;;;;;11.40;3.25;;;;;;;;;;5112993;28;20048;-78
2023/09/19 10:47:24;;;;;;;9.88;3.50;;;;;;;;;;5097597;28;20109;-78
2023/09/19 10:49:50;;;;;;;8.82;2.95;;;;;;;;;;5103782;28;20054;-77
2023/09/19 10:52:19;;;;;;;9.30;3.20;;;;;;;;;;5097081;28;20369;-77
2023/09/19 10:54:51;;;;;;;8.50;3.33;;;;;;;;;;5109230;28;20070;-77
2023/09/19 10:57:27;;;;;;;7.85;3.10;;;;;;;;;;5109249;28;20048;-77
2023/09/19 11:00:21;;;;;;;7.18;3.30;;;;;;;;;;5098018;28;20479;-77
2023/09/19 11:03:07;;;;;;;9.73;3.17;;;;;;;;;;5115752;27;20043;-77
2023/09/19 11:05:33;;;;;;;12.63;3.78;;;;;;;;;;5107517;27;20510;-77
2023/09/19 11:08:04;;;;;;;10.07;3.22;;;;;;;;;;5101266;28;20046;-77
2023/09/19 11:10:50;;;;;;;9.77;3.72;;;;;;;;;;5113251;28;20055;-77
2023/09/19 11:13:34;;;;;;;10.40;3.90;;;;;;;;;;5113914;28;20050;-77
2023/09/19 11:16:00;;;;;;;8.68;3.28;;;;;;;;;;5100088;27;20134;-77
2023/09/19 11:18:42;;;;;;;11.18;3.85;;;;;;;;;;5104334;28;20044;-76
2023/09/19 11:21:31;;;;;;;11.57;4.15;;;;;;;;;;5102440;28;20066;-76
2023/09/19 11:24:35;;;;;;;13.18;4.63;;;;;;;;;;5113021;28;20039;-76
2023/09/19 11:27:13;;;;;;;12.32;3.60;;;;;;;;;;5100333;28;20048;-76
2023/09/19 11:29:40;;;;;;;10.32;3.72;;;;;;;;;;5113772;27;20445;-76
2023/09/19 11:32:07;;;;;;;11.20;3.88;;;;;;;;;;5118462;27;20036;-76
2023/09/19 11:34:39;;;;;;;10.70;3.40;;;;;;;;;;5097022;28;20415;-76
2023/09/19 11:37:14;;;;;;;12.05;4.30;;;;;;;;;;5093962;28;20556;-77
2023/09/19 11:39:43;;;;;;;6.83;3.60;;;;;;;;;;5097055;28;20051;-77
2023/09/19 11:42:28;;;;;;;9.07;3.50;;;;;;;;;;5101670;28;20432;-77
2023/09/19 11:44:55;;;;;;;11.95;4.13;;;;;;;;;;5107058;28;20037;-77
2023/09/19 11:47:25;;;;;;;10.15;3.45;;;;;;;;;;5104120;28;20529;-77
2023/09/19 11:49:53;;;;;;;7.05;3.20;;;;;;;;;;5099596;28;20046;-77
2023/09/19 11:52:26;;;;;;;8.80;3.33;;;;;;;;;;5104970;28;20078;-77
2023/09/19 11:54:57;;;;;;;10.35;3.72;;;;;;;;;;5108382;28;20048;-77
2023/09/19 11:57:23;;;;;;;13.05;4.50;;;;;;;;;;5107242;28;20043;-77
2023/09/19 11:59:53;;;;;;;12.73;4.15;;;;;;;;;;5105549;28;20051;-77
2023/09/19 12:02:28;;;;;;;11.43;3.65;;;;;;;;;;5106461;28;20055;-77
2023/09/19 12:04:55;;;;;;;13.98;5.10;;;;;;;;;;5113717;28;20479;-77
2023/09/19 12:07:21;;;;;;;10.88;4.18;;;;;;;;;;5112419;28;20047;-77
2023/09/19 12:09:51;;;;;;;11.43;4.35;;;;;;;;;;5102882;28;20134;-76
2023/09/19 12:12:21;;;;;;;11.55;4.45;;;;;;;;;;5111293;28;20113;-76
2023/09/19 12:14:50;;;;;;;14.25;4.40;;;;;;;;;;5094101;28;20487;-76
2023/09/19 12:17:23;;;;;;;11.18;4.78;;;;;;;;;;5110827;28;20371;-76
2023/09/19 12:19:53;;;;;;;10.05;4.32;;;;;;;;;;5113253;28;20043;-76
2023/09/19 12:22:20;;;;;;;9.27;4.28;;;;;;;;;;5109616;28;20044;-76
2023/09/19 12:24:46;;;;;;;11.77;4.22;;;;;;;;;;5098678;28;20472;-76
2023/09/19 12:27:13;;;;;;;10.05;3.53;;;;;;;;;;5105796;28;20040;-77
2023/09/19 12:29:43;;;;;;;10.57;3.70;;;;;;;;;;5109809;28;20071;-76
2023/09/19 12:32:09;;;;;;;10.15;3.83;;;;;;;;;;5117652;28;20047;-76
2023/09/19 12:34:35;;;;;;;7.88;3.45;;;;;;;;;;5117023;28;20399;-76
2023/09/19 12:37:29;;;;;;;7.13;3.10;;;;;;;;;;5112117;28;20475;-77
2023/09/19 12:40:14;;;;;;;10.10;3.88;;;;;;;;;;5113582;28;20047;-76
2023/09/19 12:42:41;;;;;;;;;;;;;;;;;;5110285;28;20048;-75
2023/09/19 12:45:09;;;;;;;9.52;3.53;;;;;;;;;;5115458;28;20294;-75
2023/09/19 12:47:35;;;;;;;9.13;3.40;;;;;;;;;;5109491;28;20120;-76
2023/09/19 12:50:13;;;;;;;8.95;3.30;;;;;;;;;;5117349;28;20146;-76
2023/09/19 12:52:45;;;;;;;8.82;3.10;;;;;;;;;;5103727;28;20044;-76
2023/09/19 12:55:32;;;;;;;10.35;3.40;;;;;;;;;;5109489;28;20089;-76
2023/09/19 12:58:01;;;;;;;11.02;3.47;;;;;;;;;;5109803;27;20110;-76
2023/09/19 13:00:38;;;;;;;9.27;3.30;;;;;;;;;;5110982;27;20048;-76
2023/09/19 13:03:25;;;;;;;8.30;3.58;;;;;;;;;;5101998;28;20042;-76
2023/09/19 13:05:53;;;;;;;9.45;3.80;;;;;;;;;;5101364;28;20040;-76
2023/09/19 13:08:26;;;;;;;6.57;3.10;;;;;;;;;;5109117;28;20373;-76
2023/09/19 13:11:15;;;;;;;6.63;3.33;;;;;;;;;;5108758;28;20047;-76
2023/09/19 13:13:46;;;;;;;8.40;3.70;;;;;;;;;;5115731;28;20138;-76
2023/09/19 13:16:14;;;;;;;10.05;3.67;;;;;;;;;;5103172;28;20157;-76
2023/09/19 13:18:56;;;;;;;8.65;3.40;;;;;;;;;;5110884;28;20054;-76
2023/09/19 13:21:28;;;;;;;9.35;3.15;;;;;;;;;;5110260;28;20043;-76
2023/09/19 13:23:59;;;;;;;6.60;2.60;;;;;;;;;;5113995;28;20039;-76
2023/09/19 13:26:28;;;;;;;7.38;2.70;;;;;;;;;;5114530;28;20466;-76
2023/09/19 13:28:55;;;;;;;6.40;3.00;;;;;;;;;;5112612;28;20141;-76
2023/09/19 13:31:21;;;;;;;5.88;2.65;;;;;;;;;;5109713;28;20126;-76
2023/09/19 13:33:48;;;;;;;8.23;2.88;;;;;;;;;;5115503;28;20475;-76
2023/09/19 13:36:15;;;;;;;6.78;2.80;;;;;;;;;;5109496;28;20471;-76
2023/09/19 13:38:45;;;;;;;6.20;2.80;;;;;;;;;;5101799;28;20078;-76
2023/09/19 13:41:11;;;;;;;6.75;2.72;;;;;;;;;;5112928;28;20048;-76
2023/09/19 13:43:38;;;;;;;9.13;2.83;;;;;;;;;;5102779;28;20047;-76
2023/09/19 13:46:07;;;;;;;8.50;3.15;;;;;;;;;;5102202;28;20041;-76
2023/09/19 13:48:35;;;;;;;8.50;3.22;;;;;;;;;;5103922;28;20048;-76
2023/09/19 13:51:02;;;;;;;6.40;3.20;;;;;;;;;;5108237;28;20040;-77
2023/09/19 13:53:28;;;;;;;8.35;3.10;;;;;;;;;;5105093;28;20516;-77
2023/09/19 13:55:54;;;;;;;11.00;3.17;;;;;;;;;;5101722;28;20514;-77
2023/09/19 13:58:22;;;;;;;6.82;2.75;;;;;;;;;;5115452;28;20055;-77
2023/09/19 14:00:48;;;;;;;7.05;3.30;;;;;;;;;;5097230;28;20420;-79
2023/09/19 14:03:14;;;;;;;8.85;3.33;;;;;;;;;;5104753;28;20046;-76
2023/09/19 14:05:42;;;;;;;6.10;3.10;;;;;;;;;;5113466;28;20047;-80
2023/09/19 14:08:08;;;;;;;7.53;3.05;;;;;;;;;;5099309;28;20074;-75
2023/09/19 14:10:34;;;;;;;10.23;3.15;;;;;;;;;;5112761;28;20092;-75
2023/09/19 14:13:01;;;;;;;7.97;2.88;;;;;;;;;;5106352;28;20048;-75
2023/09/19 14:15:32;;;;;;;7.35;3.20;;;;;;;;;;5097534;28;20040;-75
2023/09/19 14:17:58;;;;;;;6.28;3.08;;;;;;;;;;5115449;28;20414;-75
2023/09/19 14:20:26;;;;;;;7.65;3.42;;;;;;;;;;5113593;28;20055;-75
2023/09/19 14:22:52;;;;;;;7.20;3.05;;;;;;;;;;5110549;28;20082;-75
2023/09/19 14:25:18;;;;;;;6.38;3.58;;;;;;;;;;5114970;28;20035;-75
2023/09/19 14:27:44;;;;;;;8.18;3.33;;;;;;;;;;5115094;28;20043;-75
2023/09/19 14:30:11;;;;;;;9.18;3.38;;;;;;;;;;5115016;28;20055;-75
2023/09/19 14:32:37;;;;;;;7.95;3.40;;;;;;;;;;5114808;28;20061;-74
2023/09/19 14:35:03;;;;;;;10.50;3.75;;;;;;;;;;5111842;28;20380;-75
2023/09/19 14:37:31;;;;;;;8.75;4.13;;;;;;;;;;5104170;28;20052;-75
2023/09/19 14:39:57;;;;;;;9.50;4.40;;;;;;;;;;5100236;28;20432;-75
2023/09/19 14:42:23;;;;;;;8.50;3.58;;;;;;;;;;5115087;28;20040;-75
2023/09/19 14:44:49;;;;;;;10.02;3.95;;;;;;;;;;5113969;28;20383;-75
2023/09/19 14:47:16;;;;;;;8.93;3.88;;;;;;;;;;5114536;28;20126;-75
2023/09/19 14:49:42;;;;;;;11.07;3.67;;;;;;;;;;5111078;28;20043;-75
2023/09/19 14:52:09;;;;;;;10.77;3.60;;;;;;;;;;5103942;28;20043;-75
2023/09/19 14:54:37;;;;;;;8.68;3.33;;;;;;;;;;5113725;28;20035;-75